Terminal Aerodrome Forecast
Issued by NWS

Home | Current Version | Previous Version | Text Only | Print | Product List | Glossary On
Versions: 1 2 3 4 5 6 7 8 9 10 11 12
000
FTUS43 KSGF 201120
TAFJLN
TAF
KJLN 201120Z 2012/2112 19018G27KT P6SM OVC015 WS020/22055KT
     FM202100 19015G22KT P6SM BKN035 WS020/20040KT
     FM210000 17016G22KT P6SM SCT120
     FM210300 18012G20KT P6SM BKN030
     FM210700 19015KT P6SM BKN035
     FM210900 19012G20KT P6SM BKN015=

USA.gov is the U.S. government's official web portal to all federal, state and local government web resources and services.